Time;durP1;ratioP1;P1;durP2;ratioP2;P2;SDS_P1;SDS_P2;PMS_P1;PMS_P2;Temp;Humidity;BMP_temperature;BMP_pressure;BME280_temperature;BME280_humidity;BME280_pressure;Samples;Min_cycle;Max_cycle;Signal;HPM_P1;HPM_P2
2022/12/24 00:00:28;;;;;;;23.40;8.57;;;13.00;99.90;;;;;;5053025;28;20086;-67
2022/12/24 00:02:54;;;;;;;25.98;9.38;;;13.00;99.90;;;;;;5052207;28;20056;-67
2022/12/24 00:05:19;;;;;;;26.17;7.68;;;13.00;99.90;;;;;;5053213;28;20028;-67
2022/12/24 00:07:45;;;;;;;23.63;7.63;;;13.00;99.90;;;;;;5053475;28;20057;-66
2022/12/24 00:10:11;;;;;;;21.23;7.65;;;13.00;99.90;;;;;;5052754;28;20157;-66
2022/12/24 00:12:37;;;;;;;24.83;7.20;;;13.00;99.90;;;;;;5052081;28;20029;-67
2022/12/24 00:15:04;;;;;;;26.00;9.15;;;13.00;99.90;;;;;;5052960;28;20036;-67
2022/12/24 00:17:30;;;;;;;26.35;8.68;;;13.00;99.90;;;;;;5053168;28;20033;-67
2022/12/24 00:19:55;;;;;;;25.05;8.75;;;13.00;99.90;;;;;;5052812;28;20388;-66
2022/12/24 00:22:21;;;;;;;24.00;7.13;;;13.00;99.90;;;;;;5053112;28;20025;-67
2022/12/24 00:24:47;;;;;;;20.65;6.60;;;13.00;99.90;;;;;;5052706;28;20049;-67
2022/12/24 00:27:13;;;;;;;20.63;6.40;;;13.00;99.90;;;;;;5052503;28;20017;-67
2022/12/24 00:29:38;;;;;;;24.52;5.65;;;13.00;99.90;;;;;;5052986;28;20427;-67
2022/12/24 00:32:08;;;;;;;20.92;5.75;;;13.00;99.90;;;;;;5052788;28;20025;-67
2022/12/24 00:34:37;;;;;;;22.23;5.75;;;13.10;99.90;;;;;;5052627;28;20025;-67
2022/12/24 00:37:04;;;;;;;17.60;5.00;;;13.10;99.90;;;;;;5052535;28;20412;-67
2022/12/24 00:39:30;;;;;;;18.63;5.28;;;13.00;99.90;;;;;;5052662;28;20405;-67
2022/12/24 00:41:55;;;;;;;19.90;5.05;;;13.10;99.90;;;;;;5052264;28;20025;-67
2022/12/24 00:44:21;;;;;;;15.82;4.55;;;13.10;99.90;;;;;;5052535;28;20029;-67
2022/12/24 00:46:47;;;;;;;18.80;4.45;;;13.00;99.90;;;;;;5052244;28;20028;-67
2022/12/24 00:49:13;;;;;;;18.83;4.10;;;13.00;99.90;;;;;;5052351;28;20048;-67
2022/12/24 00:51:39;;;;;;;18.88;4.20;;;13.00;99.90;;;;;;5051522;28;20036;-65
2022/12/24 00:54:05;;;;;;;16.17;4.07;;;13.00;99.90;;;;;;5052315;28;20045;-67
2022/12/24 00:56:32;;;;;;;16.23;3.70;;;13.00;99.90;;;;;;5051951;28;20033;-66
2022/12/24 00:58:58;;;;;;;16.70;4.70;;;13.00;99.90;;;;;;5052145;28;20081;-67
2022/12/24 01:01:25;;;;;;;22.58;5.70;;;13.00;99.90;;;;;;5051511;28;20389;-65
2022/12/24 01:03:50;;;;;;;20.35;5.47;;;13.00;99.90;;;;;;5052178;28;20055;-66
2022/12/24 01:06:20;;;;;;;21.55;5.88;;;13.00;99.90;;;;;;5052222;28;20029;-66
2022/12/24 01:08:48;;;;;;;20.50;5.55;;;13.00;99.90;;;;;;5051803;28;20033;-65
2022/12/24 01:11:14;;;;;;;20.30;5.50;;;13.00;99.90;;;;;;5051733;28;20479;-67
2022/12/24 01:13:39;;;;;;;19.67;4.28;;;13.00;99.90;;;;;;5051918;28;20029;-64
2022/12/24 01:16:15;;;;;;;15.45;4.43;;;12.90;99.90;;;;;;5051985;28;20095;-67
2022/12/24 01:18:41;;;;;;;17.75;3.88;;;12.90;99.90;;;;;;5052275;28;20029;-66
2022/12/24 01:21:06;;;;;;;20.17;4.38;;;12.90;99.90;;;;;;5050562;28;20082;-67
2022/12/24 01:23:32;;;;;;;15.70;4.30;;;12.90;99.90;;;;;;5051884;28;20025;-67
2022/12/24 01:26:02;;;;;;;16.50;3.85;;;12.90;99.90;;;;;;5052008;28;20370;-67
2022/12/24 01:28:28;;;;;;;17.48;4.35;;;12.90;99.90;;;;;;5050483;28;20060;-67
2022/12/24 01:30:54;;;;;;;16.60;3.63;;;12.90;99.90;;;;;;5051869;28;20036;-66
2022/12/24 01:33:20;;;;;;;19.73;4.22;;;12.80;99.90;;;;;;5051746;28;20616;-67
2022/12/24 01:35:46;;;;;;;16.67;3.92;;;12.80;99.90;;;;;;5051721;28;20032;-66
2022/12/24 01:38:12;;;;;;;12.20;4.55;;;12.90;99.90;;;;;;5052078;28;20107;-66
2022/12/24 01:43:27;;;;;;;16.52;4.10;;;12.90;99.90;;;;;;5052236;28;20435;-67
2022/12/24 01:45:56;;;;;;;20.35;4.45;;;13.00;99.90;;;;;;5051660;28;20431;-67
2022/12/24 01:48:40;;;;;;;22.02;4.20;;;13.10;99.90;;;;;;5051734;28;20033;-66
2022/12/24 01:52:03;;;;;;;12.95;3.95;;;13.00;99.90;;;;;;5051560;28;20029;-67
2022/12/24 01:54:35;;;;;;;14.88;4.35;;;12.90;99.90;;;;;;5029202;28;20473;-67
2022/12/24 01:57:09;;;;;;;18.55;4.68;;;12.80;99.90;;;;;;5029518;28;20095;-67
2022/12/24 01:59:37;;;;;;;15.82;3.92;;;12.80;99.90;;;;;;5029949;28;20032;-67
2022/12/24 02:02:04;;;;;;;17.65;4.53;;;12.80;99.90;;;;;;5029634;28;20034;-66
2022/12/24 02:04:41;;;;;;;16.55;5.28;;;12.80;99.90;;;;;;5029074;28;20060;-67
2022/12/24 02:07:07;;;;;;;20.75;5.82;;;12.80;99.90;;;;;;5029002;28;20096;-67
2022/12/24 02:09:35;;;;;;;21.27;5.72;;;12.80;99.90;;;;;;5029227;28;20557;-67
2022/12/24 02:12:02;;;;;;;20.95;4.63;;;12.80;99.90;;;;;;5029549;28;20115;-66
2022/12/24 02:14:31;;;;;;;19.42;4.30;;;12.70;99.90;;;;;;5029571;28;20025;-67
2022/12/24 02:17:17;;;;;;;19.25;4.60;;;12.70;99.90;;;;;;5029688;28;20045;-67
2022/12/24 02:20:13;;;;;;;19.77;4.70;;;12.80;99.90;;;;;;5029229;28;20033;-66
2022/12/24 02:23:17;;;;;;;22.58;4.90;;;12.80;99.90;;;;;;5028896;28;20509;-67
2022/12/24 02:25:58;;;;;;;23.85;4.50;;;12.80;99.90;;;;;;5006027;28;20114;-66
2022/12/24 02:28:53;;;;;;;22.42;4.53;;;12.70;99.90;;;;;;5003565;28;20482;-67
2022/12/24 02:31:40;;;;;;;20.85;4.90;;;12.70;99.90;;;;;;5015319;28;20053;-67
2022/12/24 02:34:35;;;;;;;20.27;4.68;;;12.70;99.90;;;;;;5014395;28;20034;-67
2022/12/24 02:37:14;;;;;;;16.20;4.45;;;12.70;99.90;;;;;;5014541;28;20044;-67
2022/12/24 02:39:47;;;;;;;18.42;4.05;;;12.80;99.90;;;;;;5014794;28;20387;-66
2022/12/24 02:42:19;;;;;;;15.68;4.07;;;12.70;99.90;;;;;;5015001;28;20026;-67
2022/12/24 02:45:33;;;;;;;16.13;4.45;;;12.70;99.90;;;;;;5014974;28;20049;-67
2022/12/24 02:47:59;;;;;;;16.27;4.32;;;12.70;99.90;;;;;;5012477;28;20034;-67
2022/12/24 02:50:26;;;;;;;21.25;4.57;;;12.70;99.90;;;;;;5012499;28;20022;-67
2022/12/24 02:52:52;;;;;;;15.20;4.22;;;12.70;99.90;;;;;;5012446;28;20403;-67
2022/12/24 02:55:32;;;;;;;21.17;5.15;;;12.70;99.90;;;;;;5012576;28;20133;-66
2022/12/24 02:58:10;;;;;;;17.65;4.50;;;12.80;99.90;;;;;;5012607;28;20048;-67
2022/12/24 03:01:17;;;;;;;22.00;4.25;;;12.80;99.90;;;;;;5012494;28;20030;-67
2022/12/24 03:03:51;;;;;;;17.95;4.60;;;12.70;99.90;;;;;;5012467;28;20030;-67
2022/12/24 03:06:38;;;;;;;22.02;5.25;;;12.70;99.90;;;;;;5012212;28;20092;-66
2022/12/24 03:09:25;;;;;;;19.92;5.05;;;12.70;99.90;;;;;;5007776;28;20132;-67
2022/12/24 03:12:00;;;;;;;17.73;4.50;;;12.70;99.90;;;;;;5012471;28;20042;-66
2022/12/24 03:14:28;;;;;;;24.20;5.50;;;12.70;99.90;;;;;;5012221;28;20029;-66
2022/12/24 03:16:56;;;;;;;20.42;5.63;;;12.70;99.90;;;;;;5012455;28;20038;-66
2022/12/24 03:19:24;;;;;;;18.98;4.35;;;12.70;99.90;;;;;;5013772;28;20061;-67
2022/12/24 03:21:53;;;;;;;21.60;5.22;;;12.70;99.90;;;;;;5013896;28;20155;-65
2022/12/24 03:24:19;;;;;;;22.27;5.47;;;12.70;99.90;;;;;;5014363;28;20076;-66
2022/12/24 03:26:46;;;;;;;21.67;5.28;;;12.70;99.90;;;;;;5013859;28;20025;-66
2022/12/24 03:29:12;;;;;;;23.92;5.65;;;12.80;99.90;;;;;;5028504;28;20028;-67
2022/12/24 03:31:49;;;;;;;19.92;4.95;;;12.70;99.90;;;;;;5033767;28;20389;-67
2022/12/24 03:34:16;;;;;;;17.88;5.10;;;12.60;99.90;;;;;;5034015;28;20021;-67
2022/12/24 03:36:42;;;;;;;22.10;5.43;;;12.60;99.90;;;;;;5032383;28;20041;-66
2022/12/24 03:39:09;;;;;;;23.02;4.95;;;12.60;99.90;;;;;;5033515;28;20033;-66
2022/12/24 03:41:36;;;;;;;20.48;5.05;;;12.60;99.90;;;;;;5033316;28;20473;-67
2022/12/24 03:44:02;;;;;;;22.33;5.50;;;12.70;99.90;;;;;;5033618;28;20022;-66
2022/12/24 03:46:28;;;;;;;19.38;5.40;;;12.70;99.90;;;;;;5033036;28;20068;-66
2022/12/24 03:48:54;;;;;;;18.35;5.22;;;12.70;99.90;;;;;;5032413;28;20017;-67
2022/12/24 03:51:22;;;;;;;18.98;5.53;;;12.60;99.90;;;;;;5032771;28;20029;-66
2022/12/24 03:53:48;;;;;;;19.20;5.60;;;12.60;99.90;;;;;;5033446;28;20037;-67
2022/12/24 03:56:14;;;;;;;24.25;5.40;;;12.70;99.90;;;;;;5033686;28;20041;-67
2022/12/24 03:58:40;;;;;;;21.27;4.90;;;12.70;99.90;;;;;;5033260;28;20021;-67
2022/12/24 04:01:05;;;;;;;23.02;5.20;;;12.60;99.90;;;;;;5033401;28;20037;-67
2022/12/24 04:03:31;;;;;;;22.15;5.68;;;12.60;99.90;;;;;;5033614;28;20063;-66
2022/12/24 04:06:05;;;;;;;22.63;7.30;;;12.70;99.90;;;;;;5033247;28;20509;-67
2022/12/24 04:08:31;;;;;;;22.27;8.00;;;12.60;99.90;;;;;;5033924;28;20017;-66
2022/12/24 04:10:57;;;;;;;22.60;6.18;;;12.50;99.90;;;;;;5053054;28;20388;-66
2022/12/24 04:13:23;;;;;;;20.38;5.20;;;12.50;99.90;;;;;;5052999;28;20539;-66
2022/12/24 04:16:05;;;;;;;27.13;5.05;;;12.50;99.90;;;;;;5052716;28;20044;-66
2022/12/24 04:18:31;;;;;;;19.77;5.00;;;12.50;99.90;;;;;;5052567;28;20027;-66
2022/12/24 04:20:57;;;;;;;21.20;5.68;;;12.50;99.90;;;;;;5052834;28;20063;-66
2022/12/24 04:23:23;;;;;;;19.60;4.93;;;12.50;99.90;;;;;;5052935;28;20028;-66
2022/12/24 04:25:49;;;;;;;21.30;4.65;;;12.50;99.90;;;;;;5053208;28;20261;-66
2022/12/24 04:28:15;;;;;;;20.88;5.30;;;12.50;99.90;;;;;;5052698;28;20546;-66
2022/12/24 04:30:41;;;;;;;24.90;5.13;;;12.50;99.90;;;;;;5052579;28;20060;-66
2022/12/24 04:33:07;;;;;;;18.95;5.03;;;12.60;99.90;;;;;;5052532;28;20021;-66
2022/12/24 04:35:33;;;;;;;17.25;5.28;;;12.50;99.90;;;;;;5052593;28;20045;-66
2022/12/24 04:37:59;;;;;;;23.77;5.28;;;12.50;99.90;;;;;;5053239;28;20044;-66
2022/12/24 04:40:25;;;;;;;20.90;5.88;;;12.50;99.90;;;;;;5052547;28;20060;-66
2022/12/24 04:42:50;;;;;;;28.92;6.22;;;12.50;99.90;;;;;;5052387;28;20021;-66
2022/12/24 04:45:17;;;;;;;22.70;5.07;;;12.50;99.90;;;;;;5052438;28;20064;-66
2022/12/24 04:47:43;;;;;;;23.30;5.68;;;12.50;99.90;;;;;;5052101;28;20029;-66
2022/12/24 04:50:09;;;;;;;22.77;6.00;;;12.50;99.90;;;;;;5052392;28;20025;-66
2022/12/24 04:52:35;;;;;;;18.20;5.20;;;12.50;99.90;;;;;;5052457;28;20032;-66
2022/12/24 04:55:01;;;;;;;22.67;5.70;;;12.50;99.90;;;;;;5052287;28;20112;-66
2022/12/24 04:57:27;;;;;;;20.20;5.38;;;12.40;99.90;;;;;;5052827;28;20432;-67
2022/12/24 04:59:52;;;;;;;21.30;5.20;;;12.40;99.90;;;;;;5052035;28;20113;-66
2022/12/24 05:02:18;;;;;;;24.35;5.50;;;12.40;99.90;;;;;;5052012;28;20048;-66
2022/12/24 05:04:44;;;;;;;23.63;5.25;;;12.40;99.90;;;;;;5052078;28;20026;-66
2022/12/24 05:07:09;;;;;;;23.48;5.22;;;12.30;99.90;;;;;;5052430;28;20025;-66
2022/12/24 05:09:35;;;;;;;22.05;5.15;;;12.20;99.90;;;;;;5052048;28;20485;-66
2022/12/24 05:12:01;;;;;;;22.90;6.07;;;12.20;99.90;;;;;;5052131;28;20123;-66
2022/12/24 05:14:26;;;;;;;23.83;5.97;;;12.20;99.90;;;;;;5052152;28;20029;-66
2022/12/24 05:16:52;;;;;;;21.20;6.03;;;12.20;99.90;;;;;;5050364;28;20040;-66
2022/12/24 05:19:18;;;;;;;24.52;6.00;;;12.10;99.90;;;;;;5051901;28;20025;-66
2022/12/24 05:26:20;;;;;;;23.50;5.57;;;12.10;99.90;;;;;;5052142;28;20358;-67
2022/12/24 05:27:13;;;;;;;21.20;6.65;;;12.10;99.90;;;;;;5052328;28;20545;-66
2022/12/24 05:29:39;;;;;;;20.33;6.18;;;12.00;99.90;;;;;;5051739;28;20018;-66
2022/12/24 05:32:05;;;;;;;23.27;6.80;;;12.00;99.90;;;;;;5051734;28;20032;-66
2022/12/24 05:34:30;;;;;;;20.75;7.50;;;11.90;99.90;;;;;;5051979;28;20025;-66
2022/12/24 05:36:56;;;;;;;24.52;7.68;;;11.90;99.90;;;;;;5051860;28;20044;-66
2022/12/24 05:39:22;;;;;;;29.95;7.97;;;11.90;99.90;;;;;;5051780;28;20060;-66
2022/12/24 05:41:47;;;;;;;27.90;9.07;;;11.80;99.90;;;;;;5051822;28;20033;-67
2022/12/24 05:44:14;;;;;;;32.60;7.50;;;11.80;99.90;;;;;;5051782;28;20470;-67
2022/12/24 05:46:41;;;;;;;25.83;9.68;;;11.70;99.90;;;;;;5051468;28;20082;-66
2022/12/24 05:49:06;;;;;;;41.45;9.48;;;11.80;99.90;;;;;;5051940;28;20040;-66
2022/12/24 05:51:32;;;;;;;61.72;9.63;;;11.70;99.90;;;;;;5051452;28;20025;-66
2022/12/24 05:53:58;;;;;;;113.93;9.77;;;11.70;99.90;;;;;;5051981;28;20029;-66
2022/12/24 05:56:24;;;;;;;54.97;10.02;;;11.70;99.90;;;;;;5051710;28;20040;-66
2022/12/24 05:58:51;;;;;;;73.85;10.38;;;11.60;99.90;;;;;;5051565;28;20041;-66
2022/12/24 06:01:17;;;;;;;51.70;8.35;;;11.60;99.90;;;;;;5055089;28;20104;-66
2022/12/24 06:03:43;;;;;;;84.35;8.88;;;11.60;99.90;;;;;;5055532;28;20032;-66
2022/12/24 06:06:14;;;;;;;44.00;8.45;;;11.50;99.90;;;;;;5055611;28;20029;-66
2022/12/24 06:08:41;;;;;;;70.45;7.40;;;11.50;99.90;;;;;;5055399;28;20032;-66
2022/12/24 06:11:10;;;;;;;84.93;8.25;;;11.50;99.90;;;;;;5055515;28;20040;-66
2022/12/24 06:13:36;;;;;;;49.70;7.00;;;11.40;99.90;;;;;;5055298;28;20029;-66
2022/12/24 06:16:05;;;;;;;71.40;9.70;;;11.40;99.90;;;;;;5054875;28;20128;-67
2022/12/24 06:18:33;;;;;;;57.72;9.10;;;11.40;99.90;;;;;;5055095;28;20481;-66
2022/12/24 06:20:59;;;;;;;28.90;7.90;;;11.40;99.90;;;;;;5055185;28;20082;-67
2022/12/24 06:23:27;;;;;;;48.90;6.97;;;11.40;99.90;;;;;;5055148;28;20108;-66
2022/12/24 06:25:56;;;;;;;27.75;6.18;;;11.30;99.90;;;;;;5055595;28;20017;-66
2022/12/24 06:28:21;;;;;;;58.88;6.72;;;11.20;99.90;;;;;;5054828;28;20080;-66
2022/12/24 06:30:48;;;;;;;51.90;7.13;;;11.20;99.90;;;;;;5054431;28;20029;-64
2022/12/24 06:33:15;;;;;;;45.50;7.63;;;11.20;99.90;;;;;;5054819;28;20036;-66
2022/12/24 06:35:41;;;;;;;45.00;7.72;;;11.20;99.90;;;;;;5054567;28;20021;-66
2022/12/24 06:38:06;;;;;;;62.00;8.43;;;11.20;99.90;;;;;;5054789;28;20116;-66
2022/12/24 06:40:32;;;;;;;61.35;8.07;;;11.10;99.90;;;;;;5053975;28;20096;-66
2022/12/24 06:42:58;;;;;;;66.15;8.27;;;11.20;99.90;;;;;;5054824;28;20392;-66
2022/12/24 06:45:23;;;;;;;65.22;7.20;;;11.10;99.90;;;;;;5053505;28;20075;-66
2022/12/24 06:47:49;;;;;;;29.60;6.50;;;11.00;99.90;;;;;;5054597;28;20070;-66
2022/12/24 06:50:16;;;;;;;49.00;6.20;;;11.00;99.90;;;;;;5053127;28;20025;-66
2022/12/24 06:52:42;;;;;;;44.35;6.72;;;10.90;99.90;;;;;;5055018;28;20028;-66
2022/12/24 06:55:08;;;;;;;100.45;6.95;;;10.90;99.90;;;;;;5054432;28;20071;-66
2022/12/24 06:57:33;;;;;;;58.17;6.38;;;10.80;99.90;;;;;;5054257;28;20032;-66
2022/12/24 06:59:59;;;;;;;61.95;5.80;;;10.70;99.90;;;;;;5054494;28;20104;-65
2022/12/24 07:02:25;;;;;;;126.03;6.75;;;10.60;99.90;;;;;;5054469;28;20033;-66
2022/12/24 07:04:51;;;;;;;60.05;5.80;;;10.60;99.90;;;;;;5053776;28;20404;-65
2022/12/24 07:07:17;;;;;;;101.80;5.90;;;10.60;99.90;;;;;;5053771;28;20036;-65
2022/12/24 07:09:43;;;;;;;42.30;4.90;;;10.60;99.90;;;;;;5053818;28;20489;-66
2022/12/24 07:12:08;;;;;;;38.85;5.45;;;10.60;99.90;;;;;;5053292;28;20037;-66
2022/12/24 07:14:34;;;;;;;72.35;5.32;;;10.60;99.90;;;;;;5054450;28;20025;-65
2022/12/24 07:17:00;;;;;;;69.10;4.97;;;10.60;99.90;;;;;;5053997;28;20055;-66
2022/12/24 07:19:26;;;;;;;47.80;4.97;;;10.50;99.90;;;;;;5053906;28;20513;-66
2022/12/24 07:21:51;;;;;;;47.10;4.18;;;10.50;99.90;;;;;;5053917;28;20493;-66
2022/12/24 07:24:17;;;;;;;37.63;3.63;;;10.50;99.90;;;;;;5053921;28;20025;-67
2022/12/24 07:26:43;;;;;;;57.17;4.30;;;10.40;99.90;;;;;;5047329;28;20032;-65
2022/12/24 07:29:08;;;;;;;44.88;3.55;;;10.30;99.90;;;;;;5048012;28;20367;-66
2022/12/24 07:31:34;;;;;;;43.03;3.20;;;10.30;99.90;;;;;;5039383;28;20029;-66
2022/12/24 07:34:00;;;;;;;60.05;3.83;;;10.20;99.90;;;;;;5033702;28;20021;-66
2022/12/24 07:36:27;;;;;;;38.63;3.88;;;10.20;99.90;;;;;;5033554;28;20034;-66
2022/12/24 07:38:53;;;;;;;36.97;3.65;;;10.20;99.90;;;;;;5031930;28;20022;-66
2022/12/24 07:41:18;;;;;;;56.60;3.95;;;10.30;99.90;;;;;;5033264;28;20018;-66
2022/12/24 07:43:44;;;;;;;46.97;4.43;;;10.20;99.90;;;;;;5033435;28;20009;-66
2022/12/24 07:46:10;;;;;;;64.22;3.92;;;10.20;99.90;;;;;;5033051;28;20041;-66
2022/12/24 07:48:36;;;;;;;46.15;3.67;;;10.10;99.90;;;;;;5033292;28;20116;-65
2022/12/24 07:51:01;;;;;;;43.15;4.38;;;10.10;99.90;;;;;;5033068;28;20681;-65
2022/12/24 07:53:28;;;;;;;38.05;4.22;;;10.10;99.90;;;;;;5033199;28;20037;-66
2022/12/24 07:55:54;;;;;;;37.95;3.40;;;10.10;99.90;;;;;;5032808;28;20048;-66
2022/12/24 07:58:20;;;;;;;22.88;2.90;;;10.10;99.90;;;;;;5033126;28;20021;-66
2022/12/24 08:00:46;;;;;;;26.70;3.22;;;10.10;99.90;;;;;;5033272;28;20063;-66
2022/12/24 08:03:16;;;;;;;37.63;5.15;;;10.10;99.90;;;;;;5033073;28;20061;-66
2022/12/24 08:05:42;;;;;;;20.00;3.85;;;10.10;99.90;;;;;;5033162;28;20025;-67
2022/12/24 08:08:08;;;;;;;18.02;4.40;;;10.10;99.90;;;;;;5032594;28;20025;-66
2022/12/24 08:10:34;;;;;;;12.10;3.97;;;10.20;99.90;;;;;;5032625;28;20060;-65
2022/12/24 08:12:59;;;;;;;34.35;4.63;;;10.20;99.90;;;;;;5033030;28;20100;-66
2022/12/24 08:15:25;;;;;;;22.85;5.07;;;10.20;99.90;;;;;;5032595;28;20029;-65
2022/12/24 08:17:51;;;;;;;20.52;4.50;;;10.10;99.90;;;;;;5031377;28;20405;-65
2022/12/24 08:20:18;;;;;;;29.58;3.70;;;10.10;99.90;;;;;;5032717;28;20056;-65
2022/12/24 08:22:43;;;;;;;31.08;5.78;;;10.20;99.90;;;;;;5032031;28;20029;-66
2022/12/24 08:25:09;;;;;;;20.05;6.05;;;10.20;99.90;;;;;;5032395;28;20033;-65
2022/12/24 08:27:35;;;;;;;24.98;4.50;;;10.30;99.90;;;;;;5033509;28;20467;-65
2022/12/24 08:30:02;;;;;;;20.52;4.78;;;10.30;99.90;;;;;;5052283;28;20025;-65
2022/12/24 08:32:27;;;;;;;60.30;4.90;;;10.30;99.90;;;;;;5053021;28;20025;-65
2022/12/24 08:34:53;;;;;;;55.05;7.72;;;10.20;99.90;;;;;;5052381;28;20024;-66
2022/12/24 08:37:19;;;;;;;27.38;6.07;;;10.20;99.90;;;;;;5052177;28;20039;-65
2022/12/24 08:39:45;;;;;;;35.22;6.10;;;10.30;99.90;;;;;;5052167;28;20020;-65
2022/12/24 08:42:11;;;;;;;36.90;6.45;;;10.30;99.90;;;;;;5052190;28;20021;-66
2022/12/24 08:44:36;;;;;;;22.90;5.68;;;10.40;99.90;;;;;;5052719;28;20021;-65
2022/12/24 08:47:02;;;;;;;22.83;6.53;;;10.40;99.90;;;;;;5052323;28;20021;-65
2022/12/24 08:49:27;;;;;;;21.17;5.93;;;10.40;99.90;;;;;;5052083;28;20505;-65
2022/12/24 08:51:53;;;;;;;6.60;3.92;;;10.50;99.90;;;;;;5052078;28;20025;-65
2022/12/24 08:54:21;;;;;;;8.05;4.80;;;10.60;99.90;;;;;;5051749;28;20033;-65
2022/12/24 08:56:46;;;;;;;17.25;4.05;;;10.80;99.90;;;;;;5052012;28;20112;-65
2022/12/24 08:59:12;;;;;;;16.13;3.70;;;10.60;99.90;;;;;;5052309;28;20104;-65
2022/12/24 09:01:38;;;;;;;12.45;4.22;;;10.60;99.90;;;;;;5051995;28;20033;-65
2022/12/24 09:04:04;;;;;;;7.82;4.15;;;10.60;99.90;;;;;;5052092;28;20024;-65
2022/12/24 09:06:31;;;;;;;8.05;4.70;;;10.70;99.90;;;;;;5051677;28;20039;-65
2022/12/24 09:08:57;;;;;;;9.32;6.50;;;10.70;99.90;;;;;;5051660;28;20045;-65
2022/12/24 09:11:24;;;;;;;7.15;4.53;;;10.80;99.90;;;;;;5051797;28;20108;-65
2022/12/24 09:13:49;;;;;;;8.15;5.45;;;10.80;99.90;;;;;;5051945;28;20481;-65
2022/12/24 09:16:16;;;;;;;6.93;4.45;;;11.10;99.90;;;;;;5052040;28;20067;-65
2022/12/24 09:18:42;;;;;;;4.88;3.88;;;11.00;99.90;;;;;;5051919;28;20023;-65
2022/12/24 09:21:13;;;;;;;8.85;4.00;;;11.10;99.90;;;;;;5051861;28;20033;-65
2022/12/24 09:23:39;;;;;;;5.13;3.85;;;11.10;99.90;;;;;;5051408;28;20029;-66
2022/12/24 09:26:17;;;;;;;5.38;4.03;;;11.30;99.90;;;;;;5052245;28;20389;-65
2022/12/24 09:28:43;;;;;;;6.55;3.72;;;11.30;99.90;;;;;;5051578;28;20032;-65
2022/12/24 09:31:11;;;;;;;6.65;3.65;;;11.40;99.90;;;;;;5051763;28;20021;-65
2022/12/24 09:33:39;;;;;;;5.63;3.80;;;11.80;99.90;;;;;;5052781;28;20029;-65
2022/12/24 09:36:05;;;;;;;5.68;3.65;;;11.60;99.90;;;;;;5055690;28;20124;-65
2022/12/24 09:38:32;;;;;;;3.80;3.30;;;12.00;99.90;;;;;;5055577;28;20542;-65
2022/12/24 09:40:59;;;;;;;5.70;3.40;;;12.20;99.90;;;;;;5055954;28;20140;-65
2022/12/24 09:43:31;;;;;;;5.35;3.30;;;12.30;99.90;;;;;;5055736;28;20029;-65
2022/12/24 09:46:08;;;;;;;7.10;3.30;;;12.70;99.90;;;;;;5055742;28;20036;-65
2022/12/24 09:48:38;;;;;;;4.32;3.13;;;12.80;99.90;;;;;;5055821;28;20024;-66
2022/12/24 09:51:04;;;;;;;7.70;3.35;;;13.10;99.90;;;;;;5055360;28;20025;-65
2022/12/24 09:53:50;;;;;;;5.00;3.25;;;12.90;99.90;;;;;;5055116;28;20094;-65
2022/12/24 09:56:25;;;;;;;5.90;3.05;;;12.90;99.90;;;;;;5055366;28;20126;-65
2022/12/24 09:59:20;;;;;;;5.40;2.63;;;13.00;99.90;;;;;;5055518;28;20025;-65
2022/12/24 10:01:47;;;;;;;3.38;2.70;;;13.10;99.90;;;;;;5053585;28;20032;-65
2022/12/24 10:04:16;;;;;;;3.75;2.65;;;13.20;99.90;;;;;;5055336;28;20017;-66
2022/12/24 10:07:06;;;;;;;2.78;2.25;;;13.80;99.90;;;;;;5054999;28;20021;-65
2022/12/24 10:09:51;;;;;;;3.05;2.35;;;13.90;99.90;;;;;;5055268;28;20147;-65
2022/12/24 10:12:46;;;;;;;4.90;2.35;;;14.00;99.90;;;;;;5055537;28;20033;-65
2022/12/24 10:15:38;;;;;;;4.85;2.42;;;14.60;99.90;;;;;;5054255;28;20124;-64
2022/12/24 10:18:20;;;;;;;6.75;3.30;;;15.20;99.90;;;;;;5054837;28;20393;-65
2022/12/24 10:21:13;;;;;;;5.15;2.95;;;16.60;99.90;;;;;;5054654;28;20043;-65
2022/12/24 10:24:09;;;;;;;4.20;2.73;;;17.80;99.90;;;;;;5055110;28;20013;-65
2022/12/24 10:26:44;;;;;;;3.83;2.90;;;18.20;99.90;;;;;;5054196;28;20275;-65
2022/12/24 10:29:15;;;;;;;4.45;1.73;;;18.50;99.90;;;;;;5054707;28;20374;-65
2022/12/24 10:32:07;;;;;;;3.10;1.60;;;18.90;99.90;;;;;;5053418;28;20021;-65
2022/12/24 10:34:38;;;;;;;4.13;1.70;;;19.40;99.90;;;;;;5052165;28;20120;-65
2022/12/24 10:37:05;;;;;;;1.90;1.30;;;19.20;99.90;;;;;;5054461;28;20055;-65
2022/12/24 10:39:31;;;;;;;3.53;1.42;;;18.90;99.90;;;;;;5054977;28;20118;-66
2022/12/24 10:41:59;;;;;;;3.38;1.50;;;18.60;99.90;;;;;;5054578;28;20053;-66
2022/12/24 10:44:32;;;;;;;4.28;1.58;;;18.00;99.90;;;;;;5053441;28;20090;-66
2022/12/24 10:46:58;;;;;;;4.70;1.50;;;17.90;99.90;;;;;;5054153;28;20032;-65
2022/12/24 10:49:33;;;;;;;2.00;1.50;;;18.60;99.90;;;;;;5054603;28;20052;-66
2022/12/24 10:52:21;;;;;;;1.88;1.40;;;19.00;99.90;;;;;;5054341;28;20036;-66
2022/12/24 10:55:20;;;;;;;2.08;1.40;;;20.30;99.90;;;;;;5054469;28;20033;-65
2022/12/24 10:57:59;;;;;;;2.80;1.60;;;20.30;99.90;;;;;;5054351;28;20059;-65
2022/12/24 11:00:26;;;;;;;3.35;1.30;;;20.90;99.90;;;;;;5054447;28;20040;-65
2022/12/24 11:03:27;;;;;;;2.47;1.50;;;21.20;99.90;;;;;;5054172;28;20033;-65
2022/12/24 11:06:09;;;;;;;3.25;1.50;;;21.30;99.90;;;;;;5053621;28;20037;-65
2022/12/24 11:08:38;;;;;;;3.30;1.40;;;21.80;99.90;;;;;;5054033;28;20025;-65
2022/12/24 11:11:23;;;;;;;3.45;1.38;;;21.40;99.90;;;;;;5054654;28;20027;-65
2022/12/24 11:13:48;;;;;;;2.25;1.45;;;21.80;99.90;;;;;;5054085;28;20046;-65
2022/12/24 11:16:34;;;;;;;2.22;1.48;;;21.50;99.90;;;;;;5053925;28;20083;-65
2022/12/24 11:19:02;;;;;;;3.55;1.80;;;21.60;99.90;;;;;;5053466;28;20409;-66
2022/12/24 11:21:31;;;;;;;2.80;1.50;;;21.40;99.90;;;;;;5053574;28;20029;-65
2022/12/24 11:24:06;;;;;;;4.25;1.75;;;21.50;99.90;;;;;;5052572;28;20401;-65
2022/12/24 11:26:32;;;;;;;3.00;1.60;;;21.20;99.90;;;;;;5054280;28;20021;-65
2022/12/24 11:29:15;;;;;;;3.25;1.45;;;22.20;99.90;;;;;;5053529;28;20506;-65
2022/12/24 11:31:42;;;;;;;4.30;1.90;;;21.70;99.90;;;;;;5053661;28;20048;-65
2022/12/24 11:34:31;;;;;;;2.63;1.52;;;22.50;99.90;;;;;;5053356;28;20031;-66
2022/12/24 11:37:16;;;;;;;3.42;1.40;;;21.90;99.90;;;;;;5053973;28;20090;-65
2022/12/24 11:39:49;;;;;;;2.50;1.58;;;22.00;99.90;;;;;;5053471;28;20056;-65
2022/12/24 11:42:40;;;;;;;3.42;1.92;;;22.40;99.90;;;;;;5053962;28;20021;-65
2022/12/24 11:45:23;;;;;;;3.67;1.77;;;21.70;99.90;;;;;;5052612;28;20064;-65
2022/12/24 11:47:49;;;;;;;4.22;1.80;;;22.50;99.90;;;;;;5052969;28;20109;-65
2022/12/24 11:50:18;;;;;;;3.80;2.17;;;21.60;99.90;;;;;;5052761;28;20432;-63
2022/12/24 11:53:08;;;;;;;2.53;1.60;;;21.70;99.90;;;;;;5052885;28;20029;-66
2022/12/24 11:55:44;;;;;;;5.05;2.40;;;22.30;99.90;;;;;;5049429;28;20091;-65
2022/12/24 11:58:26;;;;;;;4.75;2.13;;;23.40;99.90;;;;;;5052768;28;20025;-65
2022/12/24 12:01:14;;;;;;;4.38;2.00;;;23.10;99.90;;;;;;5053020;28;20017;-66
2022/12/24 12:03:48;;;;;;;3.08;2.08;;;21.80;99.90;;;;;;5052958;28;20021;-66
2022/12/24 12:06:36;;;;;;;3.60;1.77;;;22.70;99.90;;;;;;5053397;28;20029;-66
2022/12/24 12:09:06;;;;;;;3.10;1.60;;;21.80;99.90;;;;;;5042786;28;20136;-65
2022/12/24 12:11:34;;;;;;;3.38;1.77;;;21.60;99.90;;;;;;5032513;28;20036;-65
2022/12/24 12:14:02;;;;;;;3.47;1.67;;;20.50;99.90;;;;;;5033012;28;20101;-66
2022/12/24 12:17:02;;;;;;;4.93;2.25;;;20.30;99.90;;;;;;5033290;28;20045;-65
2022/12/24 12:19:47;;;;;;;3.58;2.13;;;21.00;99.90;;;;;;5032567;28;20076;-65
2022/12/24 12:22:37;;;;;;;3.67;2.03;;;20.70;99.90;;;;;;5033661;28;20075;-65
2022/12/24 12:25:05;;;;;;;3.35;1.70;;;20.70;99.90;;;;;;5032836;28;20053;-66
2022/12/24 12:27:38;;;;;;;2.65;1.52;;;20.10;99.90;;;;;;5033661;28;20018;-66
2022/12/24 12:30:13;;;;;;;2.93;1.60;;;19.90;99.90;;;;;;5052855;28;20056;-68
2022/12/24 12:32:38;;;;;;;4.75;1.73;;;19.70;99.90;;;;;;5052053;28;20020;-67
2022/12/24 12:35:25;;;;;;;2.83;1.70;;;19.40;99.90;;;;;;5052681;28;20437;-67
2022/12/24 12:37:59;;;;;;;4.10;2.50;;;19.70;99.90;;;;;;5052325;28;20032;-67
2022/12/24 12:41:03;;;;;;;3.28;1.75;;;20.30;99.90;;;;;;5052464;28;20022;-66
2022/12/24 12:43:45;;;;;;;;;;;20.00;99.90;;;;;;5052525;28;20811;-67
2022/12/24 12:46:49;;;;;;;4.85;2.00;;;20.10;99.90;;;;;;5052057;28;19936;-67
2022/12/24 12:49:38;;;;;;;2.28;1.67;;;20.20;99.90;;;;;;5052223;28;20025;-68
2022/12/24 12:52:16;;;;;;;3.80;2.10;;;19.80;99.90;;;;;;5051715;28;20094;-65
2022/12/24 12:54:45;;;;;;;4.82;1.88;;;19.50;99.90;;;;;;5050911;28;20028;-64
2022/12/24 12:57:16;;;;;;;5.78;2.10;;;19.40;99.90;;;;;;5044061;28;20052;-64
2022/12/24 12:59:53;;;;;;;4.18;1.90;;;19.40;99.90;;;;;;5041423;28;20036;-65
2022/12/24 13:02:59;;;;;;;4.03;2.20;;;19.40;99.90;;;;;;5056447;28;20372;-65
2022/12/24 13:05:45;;;;;;;4.18;2.10;;;19.30;99.90;;;;;;5051903;28;20037;-66